»·PEaware :: FDX224 KGCN-KONT

FDX224 :: KGCN-KONT

FLIGHT INFORMATION

Flight Status: Arrived
Operator:
Federal Express
More flights by this operator :: More flights under this callsign
Pilot: Matteo S. (9898)
Aircraft: Unknown
(B77F)
More flights by this aircraft type
Origin: KGCN Grand Canyon Natl Park
United States
Destination: KONT Ontario Intl
United States
More flights between these airports :: More routes between these airports
Route: +PARKS2 PGS HEC ZIGGY5
File this flight plan on PilotEdge
Remarks:
Altitude:
(Current/Filed)
34,000ft
Speed:
(Current/Filed)
450kts
Departed: 23-Mar-16 10:13 AM
Arrived: 23-Mar-16 11:09 AM
Distance/Time
Traveled:
290nm/0:56
Distance/Time
To Go:
Arrived

Flight Plot

Page will automatically refresh every two minutes.


Map Options




Map Legend


Flown Route
Filed Route
Departure Airport
Arrival Airport
Navaid (VOR, NDB)
Fix

Horizontal Profiles

Position Reports

Time Latitude Longitude Heading Altitude Ground
Speed
23-Mar-16 09:45 35.953582 -112.142832 40 6607ft 0kts
23-Mar-16 09:46 35.953582 -112.142832 40 6607ft 0kts
23-Mar-16 09:47 35.953582 -112.142832 40 6607ft 0kts
23-Mar-16 09:48 35.953582 -112.142832 40 6607ft 0kts
23-Mar-16 09:49 35.953582 -112.142832 40 6607ft 0kts
23-Mar-16 09:50 35.953582 -112.142832 40 6607ft 0kts
23-Mar-16 09:51 35.953582 -112.142832 40 6607ft 0kts
23-Mar-16 09:52 35.953582 -112.142832 40 6607ft 0kts
23-Mar-16 09:53 35.953582 -112.142832 40 6607ft 0kts
23-Mar-16 09:54 35.953582 -112.142832 40 6607ft 0kts
23-Mar-16 09:55 35.953582 -112.142832 40 6607ft 0kts
23-Mar-16 09:56 35.953582 -112.142832 40 6607ft 0kts
23-Mar-16 09:57 35.953582 -112.142832 40 6607ft 0kts
23-Mar-16 09:58 35.954233 -112.142601 12 6608ft 5kts
23-Mar-16 09:59 35.955600 -112.141696 39 6611ft 5kts
23-Mar-16 10:00 35.957421 -112.139807 40 6616ft 6kts
23-Mar-16 10:01 35.959201 -112.137926 40 6623ft 7kts
23-Mar-16 10:02 35.960843 -112.136254 10 6627ft 4kts
23-Mar-16 10:03 35.961006 -112.136309 335 6626ft 0kts
23-Mar-16 10:04 35.960557 -112.138232 220 6621ft 22kts
23-Mar-16 10:05 35.926916 -112.173563 230 8113ft 233kts
23-Mar-16 10:06 35.924373 -112.259044 286 9950ft 282kts
23-Mar-16 10:07 35.915887 -112.354384 257 9970ft 293kts
23-Mar-16 10:08 35.889071 -112.449348 260 9968ft 294kts
23-Mar-16 10:09 35.866314 -112.545367 259 9969ft 290kts
23-Mar-16 10:10 35.843474 -112.641372 259 9975ft 290kts
23-Mar-16 10:11 35.820721 -112.737849 258 10029ft 305kts
23-Mar-16 10:12 35.793368 -112.851873 258 13220ft 367kts
23-Mar-16 10:13 35.763703 -112.974868 260 17113ft 384kts
23-Mar-16 10:14 35.732593 -113.103325 261 20601ft 401kts
23-Mar-16 10:15 35.700123 -113.236659 262 23193ft 411kts
23-Mar-16 10:16 35.666983 -113.372134 261 23215ft 414kts
23-Mar-16 10:17 35.633656 -113.507498 261 23215ft 414kts
23-Mar-16 10:18 35.598031 -113.642789 259 23386ft 417kts
23-Mar-16 10:19 35.560931 -113.781118 259 26265ft 438kts
23-Mar-16 10:20 35.521593 -113.925585 259 29169ft 455kts
23-Mar-16 10:21 35.480516 -114.075627 259 31965ft 472kts
23-Mar-16 10:22 35.438541 -114.227949 260 34192ft 466kts
23-Mar-16 10:23 35.397088 -114.377770 260 34224ft 465kts
23-Mar-16 10:24 35.355337 -114.527734 260 34223ft 465kts
23-Mar-16 10:25 35.313462 -114.677529 260 34248ft 467kts
23-Mar-16 10:26 35.271440 -114.828367 259 34251ft 468kts
23-Mar-16 10:27 35.228795 -114.979130 259 34247ft 469kts
23-Mar-16 10:28 35.186031 -115.129398 259 34243ft 469kts
23-Mar-16 10:29 35.142940 -115.279996 259 34250ft 469kts
23-Mar-16 10:30 35.099680 -115.430385 259 34259ft 468kts
23-Mar-16 10:31 35.056413 -115.579996 259 34292ft 468kts
23-Mar-16 10:32 35.013268 -115.729624 259 33951ft 471kts
23-Mar-16 10:33 34.969558 -115.879532 258 32056ft 472kts
23-Mar-16 10:34 34.925061 -116.030880 258 30078ft 469kts
23-Mar-16 10:35 34.889453 -116.151423 258 28437ft 444kts
23-Mar-16 10:36 34.842528 -116.309957 256 26219ft 411kts
23-Mar-16 10:37 34.810758 -116.416583 255 24448ft 395kts
23-Mar-16 10:38 34.747117 -116.523882 230 22371ft 395kts
23-Mar-16 10:39 34.670866 -116.617914 229 20712ft 387kts
23-Mar-16 10:40 34.596327 -116.709738 229 19317ft 380kts
23-Mar-16 10:41 34.522717 -116.799805 228 17828ft 371kts
23-Mar-16 10:42 34.450786 -116.887514 228 16290ft 362kts
23-Mar-16 10:43 34.380464 -116.973041 227 14709ft 354kts
23-Mar-16 10:44 34.311994 -117.056102 227 13096ft 342kts
23-Mar-16 10:45 34.252143 -117.124952 205 11916ft 264kts
23-Mar-16 10:46 34.179033 -117.130954 181 11005ft 265kts
23-Mar-16 10:47 34.134808 -117.185169 262 9653ft 248kts
23-Mar-16 10:48 34.100362 -117.257171 234 8255ft 247kts
23-Mar-16 10:49 34.058265 -117.321343 233 6959ft 242kts
23-Mar-16 10:50 34.016303 -117.384018 233 6010ft 239kts
23-Mar-16 10:51 33.971440 -117.443682 239 5919ft 234kts
23-Mar-16 10:52 33.955550 -117.520014 269 4990ft 239kts
23-Mar-16 10:53 33.951399 -117.600010 271 4483ft 240kts
23-Mar-16 10:54 33.947884 -117.678686 270 4014ft 230kts
23-Mar-16 10:55 33.956081 -117.751495 310 3538ft 216kts
23-Mar-16 10:56 34.003062 -117.782022 355 3050ft 189kts
23-Mar-16 10:57 34.051716 -117.761308 32 3078ft 183kts
23-Mar-16 10:58 34.057580 -117.704920 86 2339ft 161kts
23-Mar-16 10:59 34.056856 -117.656262 83 1548ft 137kts
23-Mar-16 11:00 34.056789 -117.612227 80 950ft 99kts
23-Mar-16 11:01 34.056888 -117.601185 88 940ft 13kts
23-Mar-16 11:02 34.055436 -117.599276 140 934ft 9kts
23-Mar-16 11:03 34.053857 -117.596047 89 930ft 10kts
23-Mar-16 11:04 34.053845 -117.592787 90 931ft 9kts
23-Mar-16 11:05 34.053862 -117.589373 89 930ft 10kts
23-Mar-16 11:06 34.053856 -117.586104 88 932ft 9kts
23-Mar-16 11:07 34.053811 -117.582764 112 931ft 8kts
23-Mar-16 11:08 34.052018 -117.580375 167 924ft 9kts
23-Mar-16 11:09 34.050161 -117.581325 269 917ft 3kts

Navigation Log

Ident Type
Flight plan parsing failed, navigation log unavailable